Stoney Point, Missouri
Current Conditions -  °F | °C
As of 9:15 AM on Friday 31 Oct 2014 (Local Time) from KFAM Reporting Station
Overcast Overcast  
Wind Chill: 39°   Ceiling: 1500
Heat Index: 45°   Visibility: 7mi
Dew Point: 39°   Wind: 10mph
Humidity: 81%   Direction: 300°WNW
Pressure: 30.19"   Gusts: 17mph
Location:  37.9132°N, 90.7°W
Report Text: KFAM 311415Z AUTO 30009G15KT 7SM BKN015 OVC021 07/04 A3019 RMK AO1
Loading
Personal Weather Stations






























Interactive Weather Map
Tropical Storm Tracking
New forecast layout! Learn more

10-Day Weather Forecast

Advertisements
Track Severe Weather on mobile